Time;durP1;ratioP1;P1;durP2;ratioP2;P2;SDS_P1;SDS_P2;PMS_P1;PMS_P2;Temp;Humidity;BMP_temperature;BMP_pressure;BME280_temperature;BME280_humidity;BME280_pressure;Samples;Min_cycle;Max_cycle;Signal;HPM_P1;HPM_P2
2021/03/21 00:02:05;;;;;;;1.67;1.02;;;5.40;99.90;;;;;;5066552;28;20040;-76
2021/03/21 00:04:30;;;;;;;1.35;0.80;;;5.40;99.90;;;;;;5066430;28;20021;-76
2021/03/21 00:06:56;;;;;;;1.55;0.90;;;5.50;99.90;;;;;;5066461;28;20355;-75
2021/03/21 00:09:22;;;;;;;3.13;1.08;;;5.40;99.90;;;;;;5068891;28;20108;-74
2021/03/21 00:11:47;;;;;;;1.45;0.85;;;5.50;99.90;;;;;;5074297;28;20112;-77
2021/03/21 00:14:13;;;;;;;1.55;0.93;;;5.60;99.90;;;;;;5066336;28;20029;-77
2021/03/21 00:16:39;;;;;;;5.00;1.27;;;5.50;99.90;;;;;;5066266;28;20561;-76
2021/03/21 00:19:06;;;;;;;1.90;1.38;;;5.50;99.90;;;;;;5063696;28;20044;-75
2021/03/21 00:21:32;;;;;;;2.13;1.23;;;5.50;99.90;;;;;;5078321;28;20067;-75
2021/03/21 00:23:58;;;;;;;3.60;1.50;;;5.60;99.90;;;;;;5085736;28;20037;-75
2021/03/21 00:26:24;;;;;;;3.70;1.77;;;5.70;99.90;;;;;;5086163;28;20020;-76
2021/03/21 00:28:50;;;;;;;1.75;1.10;;;5.60;99.90;;;;;;5085969;28;20052;-75
2021/03/21 00:31:16;;;;;;;3.15;1.67;;;5.60;99.90;;;;;;5084523;28;20041;-76
2021/03/21 00:33:43;;;;;;;2.88;1.20;;;5.60;99.90;;;;;;5084643;28;20032;-75
2021/03/21 00:36:14;;;;;;;4.40;1.80;;;5.60;99.90;;;;;;5084489;28;20028;-75
2021/03/21 00:38:43;;;;;;;2.90;1.50;;;5.60;99.90;;;;;;5086096;28;20025;-76
2021/03/21 00:41:11;;;;;;;6.00;2.35;;;5.60;99.90;;;;;;5085741;28;20031;-76
2021/03/21 00:43:36;;;;;;;4.90;1.77;;;5.70;99.90;;;;;;5085574;28;20067;-76
2021/03/21 00:46:03;;;;;;;6.90;2.50;;;5.70;99.90;;;;;;5070041;28;20547;-76
2021/03/21 00:48:33;;;;;;;2.63;2.10;;;5.70;99.90;;;;;;5065329;28;20041;-75
2021/03/21 00:50:59;;;;;;;5.25;2.25;;;5.70;99.90;;;;;;5065465;28;20445;-74
2021/03/21 00:53:25;;;;;;;13.95;3.03;;;5.70;99.90;;;;;;5080785;28;20100;-75
2021/03/21 00:55:51;;;;;;;13.05;3.05;;;5.80;99.90;;;;;;5080599;28;20021;-75
2021/03/21 00:58:18;;;;;;;6.82;3.25;;;5.80;99.90;;;;;;5065533;28;20025;-76
2021/03/21 01:00:53;;;;;;;5.50;2.70;;;5.80;99.90;;;;;;5064131;28;20036;-76
2021/03/21 01:03:21;;;;;;;4.88;2.50;;;5.80;99.90;;;;;;5081034;28;20039;-75
2021/03/21 01:05:49;;;;;;;9.52;3.15;;;5.80;99.90;;;;;;5065333;28;20040;-76
2021/03/21 01:08:22;;;;;;;6.60;2.42;;;5.80;99.90;;;;;;5080535;28;20033;-74
2021/03/21 01:10:49;;;;;;;14.40;3.55;;;5.90;99.90;;;;;;5064664;28;20052;-72
2021/03/21 01:13:16;;;;;;;8.25;2.83;;;5.90;99.90;;;;;;5065176;28;20017;-74
2021/03/21 01:15:43;;;;;;;9.52;2.83;;;5.80;99.90;;;;;;5065365;28;20039;-75
2021/03/21 01:18:15;;;;;;;6.53;2.70;;;5.90;99.90;;;;;;5065314;28;20091;-75
2021/03/21 01:20:41;;;;;;;5.95;2.65;;;5.80;99.90;;;;;;5064431;28;20041;-74
2021/03/21 01:23:07;;;;;;;5.45;2.20;;;5.90;99.90;;;;;;5064962;28;20114;-75
2021/03/21 01:25:32;;;;;;;7.75;2.50;;;5.90;99.90;;;;;;5080311;28;20044;-74
2021/03/21 01:27:58;;;;;;;10.02;2.40;;;5.90;99.90;;;;;;5064857;28;20037;-75
2021/03/21 01:30:26;;;;;;;6.05;2.50;;;5.90;99.90;;;;;;5080242;28;20029;-74
2021/03/21 01:32:53;;;;;;;4.78;2.28;;;6.00;99.90;;;;;;5064135;28;20052;-75
2021/03/21 01:35:19;;;;;;;5.85;2.80;;;5.90;99.90;;;;;;5064876;28;20017;-75
2021/03/21 01:37:45;;;;;;;4.03;2.47;;;6.00;99.90;;;;;;5063706;28;20022;-75
2021/03/21 01:40:15;;;;;;;10.38;3.47;;;6.00;99.90;;;;;;5064708;28;20025;-74
2021/03/21 01:42:44;;;;;;;15.40;2.97;;;5.90;99.90;;;;;;5064527;28;20076;-74
2021/03/21 01:45:33;;;;;;;6.10;3.08;;;6.00;99.90;;;;;;5064599;28;20051;-73
2021/03/21 01:48:01;;;;;;;7.57;3.00;;;6.00;99.90;;;;;;5064621;28;20033;-77
2021/03/21 01:50:34;;;;;;;11.65;3.65;;;6.00;99.90;;;;;;5064408;28;20032;-74
2021/03/21 01:53:00;;;;;;;10.05;2.83;;;6.10;99.90;;;;;;5079934;28;20025;-74
2021/03/21 01:55:26;;;;;;;10.82;3.95;;;6.00;99.90;;;;;;5079241;28;20029;-76
2021/03/21 01:57:52;;;;;;;18.67;2.97;;;6.10;99.90;;;;;;5064370;28;20044;-74
2021/03/21 02:00:20;;;;;;;8.35;3.25;;;6.10;99.90;;;;;;5064751;28;20029;-72
2021/03/21 02:02:46;;;;;;;6.65;3.10;;;6.00;99.90;;;;;;5064494;28;20025;-73
2021/03/21 02:05:12;;;;;;;8.55;3.72;;;6.10;99.90;;;;;;5064702;28;20508;-73
2021/03/21 02:07:54;;;;;;;11.90;3.53;;;6.10;99.90;;;;;;5063266;28;20033;-77
2021/03/21 02:11:01;;;;;;;14.70;4.03;;;6.10;99.90;;;;;;5079947;28;20050;-72
2021/03/21 02:13:56;;;;;;;7.30;2.90;;;6.10;99.90;;;;;;5061244;28;20037;-76
2021/03/21 02:16:29;;;;;;;7.07;3.03;;;6.00;99.90;;;;;;5062642;28;20033;-77
2021/03/21 02:19:26;;;;;;;4.40;2.53;;;6.00;99.90;;;;;;5063968;28;20393;-76
2021/03/21 02:22:01;;;;;;;5.53;2.85;;;6.10;99.90;;;;;;5081334;28;20033;-74
2021/03/21 02:24:41;;;;;;;4.53;2.72;;;6.00;99.90;;;;;;5083529;28;20484;-73
2021/03/21 02:27:31;;;;;;;4.35;2.45;;;6.00;99.90;;;;;;5083735;28;20047;-78
2021/03/21 02:30:17;;;;;;;8.65;2.83;;;6.00;99.90;;;;;;5083371;28;20029;-73
2021/03/21 02:32:55;;;;;;;15.65;1.77;;;6.00;99.90;;;;;;5083668;28;20033;-78
2021/03/21 02:35:33;;;;;;;3.65;1.65;;;6.00;99.90;;;;;;5068191;28;20063;-77
2021/03/21 02:38:09;;;;;;;3.72;1.90;;;6.00;99.90;;;;;;5068256;28;20036;-74
2021/03/21 02:40:43;;;;;;;5.22;2.47;;;6.00;99.90;;;;;;5068122;28;20025;-74
2021/03/21 02:43:19;;;;;;;;;;;6.00;99.90;;;;;;5084020;28;20095;-74
2021/03/21 02:45:49;;;;;;;2.85;1.58;;;6.10;99.90;;;;;;5066749;28;19905;-77
2021/03/21 02:48:23;;;;;;;4.00;1.25;;;6.00;99.90;;;;;;5068195;28;20059;-79
2021/03/21 02:50:56;;;;;;;1.58;0.90;;;6.00;99.90;;;;;;5083242;28;20059;-76
2021/03/21 02:53:31;;;;;;;3.22;1.50;;;6.00;99.90;;;;;;5067777;28;20033;-75
2021/03/21 02:56:00;;;;;;;2.60;1.10;;;6.00;99.90;;;;;;5067717;28;20119;-75
2021/03/21 02:58:29;;;;;;;1.75;0.80;;;5.90;99.90;;;;;;5066258;28;20033;-77
2021/03/21 03:01:09;;;;;;;3.50;1.08;;;5.90;99.90;;;;;;5082906;28;20029;-72
2021/03/21 03:03:40;;;;;;;2.70;0.60;;;5.90;99.90;;;;;;5066389;28;20033;-76
2021/03/21 03:06:11;;;;;;;3.35;1.17;;;5.90;99.90;;;;;;5067652;28;20052;-76
2021/03/21 03:08:43;;;;;;;1.63;0.95;;;5.80;99.90;;;;;;5082721;28;20138;-77
2021/03/21 03:11:37;;;;;;;1.92;1.10;;;5.80;99.90;;;;;;5066345;28;20055;-78
2021/03/21 03:14:07;;;;;;;1.20;0.70;;;5.80;99.90;;;;;;5059306;28;20146;-77
2021/03/21 03:16:45;;;;;;;1.58;0.70;;;5.90;99.90;;;;;;5067482;28;20052;-76
2021/03/21 03:19:33;;;;;;;5.20;0.70;;;5.90;99.90;;;;;;5067149;28;20052;-73
2021/03/21 03:22:00;;;;;;;2.58;1.17;;;5.80;99.90;;;;;;5067286;28;20044;-78
2021/03/21 03:24:38;;;;;;;1.40;0.60;;;5.80;99.90;;;;;;5082442;28;20035;-75
2021/03/21 03:27:12;;;;;;;2.15;0.85;;;5.80;99.90;;;;;;5065862;28;20021;-76
2021/03/21 03:29:48;;;;;;;2.03;0.80;;;5.80;99.90;;;;;;5067218;28;20036;-76
2021/03/21 03:32:15;;;;;;;3.67;1.10;;;5.70;99.90;;;;;;5066811;28;20037;-78
2021/03/21 03:34:45;;;;;;;3.47;1.35;;;5.70;99.90;;;;;;5082118;28;20469;-76
2021/03/21 03:37:12;;;;;;;3.30;1.00;;;5.70;99.90;;;;;;5082594;28;20580;-75
2021/03/21 03:39:39;;;;;;;2.58;1.40;;;5.70;99.90;;;;;;5082437;28;20064;-75
2021/03/21 03:42:46;;;;;;;3.50;0.90;;;5.70;99.90;;;;;;5066778;28;20657;-72
2021/03/21 03:45:23;;;;;;;5.65;1.15;;;5.80;99.90;;;;;;5082337;28;20052;-74
2021/03/21 03:48:31;;;;;;;2.20;1.40;;;5.70;99.90;;;;;;5067045;28;20112;-75
2021/03/21 03:51:06;;;;;;;13.77;1.77;;;5.80;99.90;;;;;;5065372;28;20495;-77
2021/03/21 03:53:43;;;;;;;2.20;0.80;;;5.80;99.90;;;;;;5082028;28;20090;-75
2021/03/21 03:56:10;;;;;;;3.25;1.42;;;5.80;99.90;;;;;;5066724;28;20027;-78
2021/03/21 03:58:57;;;;;;;3.00;1.08;;;5.70;99.90;;;;;;5082091;28;20504;-74
2021/03/21 04:01:49;;;;;;;1.98;0.95;;;5.70;99.90;;;;;;5066649;28;20108;-73
2021/03/21 04:04:22;;;;;;;7.63;0.88;;;5.70;99.90;;;;;;5066521;28;20020;-77
2021/03/21 04:07:13;;;;;;;3.40;0.88;;;5.80;99.90;;;;;;5066491;28;20025;-75
2021/03/21 04:10:01;;;;;;;5.93;1.27;;;5.70;99.90;;;;;;5066422;28;20440;-77
2021/03/21 04:12:34;;;;;;;4.55;1.08;;;5.70;99.90;;;;;;5066309;28;20025;-77
2021/03/21 04:15:21;;;;;;;2.42;1.08;;;5.70;99.90;;;;;;5066165;28;20024;-76
2021/03/21 04:17:54;;;;;;;2.92;0.85;;;5.70;99.90;;;;;;5081745;28;20027;-76
2021/03/21 04:20:22;;;;;;;5.10;1.10;;;5.70;99.90;;;;;;5064722;28;20563;-75
2021/03/21 04:22:57;;;;;;;2.58;1.33;;;5.70;99.90;;;;;;5066355;28;20029;-74
2021/03/21 04:25:27;;;;;;;2.42;0.90;;;5.70;99.90;;;;;;5066010;28;20081;-75
2021/03/21 04:28:33;;;;;;;3.35;1.17;;;5.60;99.90;;;;;;5065913;28;20037;-74
2021/03/21 04:31:03;;;;;;;6.43;1.70;;;5.60;99.90;;;;;;5043273;28;20041;-76
2021/03/21 04:33:36;;;;;;;3.15;1.15;;;5.60;99.90;;;;;;5081244;28;20032;-78
2021/03/21 04:36:15;;;;;;;4.68;0.77;;;5.70;99.90;;;;;;5081344;28;20092;-77
2021/03/21 04:38:49;;;;;;;2.80;0.70;;;5.60;99.90;;;;;;5066049;28;20093;-73
2021/03/21 04:41:20;;;;;;;9.23;0.90;;;5.60;99.90;;;;;;5066009;28;20104;-74
2021/03/21 04:43:58;;;;;;;1.55;1.15;;;5.70;99.90;;;;;;5065465;28;20025;-72
2021/03/21 04:46:29;;;;;;;8.23;0.85;;;5.60;99.90;;;;;;5065666;28;20029;-74
2021/03/21 04:48:56;;;;;;;2.65;0.90;;;5.60;99.90;;;;;;5065560;28;20068;-75
2021/03/21 04:51:28;;;;;;;9.98;1.60;;;5.60;99.90;;;;;;5065585;28;20407;-76
2021/03/21 04:54:02;;;;;;;9.95;1.58;;;5.60;99.90;;;;;;5065634;28;20065;-75
2021/03/21 04:56:46;;;;;;;8.68;1.70;;;5.60;99.90;;;;;;5081111;28;20032;-73
2021/03/21 04:59:18;;;;;;;2.05;0.98;;;5.60;99.90;;;;;;5065739;28;20029;-75
2021/03/21 05:02:02;;;;;;;2.47;0.73;;;5.60;99.90;;;;;;5081103;28;20111;-73
2021/03/21 05:04:33;;;;;;;9.70;0.85;;;5.60;99.90;;;;;;5065288;28;20547;-75
2021/03/21 05:07:02;;;;;;;9.90;2.25;;;5.60;99.90;;;;;;5065230;28;20083;-74
2021/03/21 05:09:42;;;;;;;7.25;1.80;;;5.60;99.90;;;;;;5080485;28;20025;-73
2021/03/21 05:12:34;;;;;;;4.90;1.67;;;5.60;99.90;;;;;;5063937;28;20025;-73
2021/03/21 05:15:24;;;;;;;4.75;1.75;;;5.50;99.90;;;;;;5065112;28;20043;-73
2021/03/21 05:17:52;;;;;;;5.47;1.80;;;5.50;99.90;;;;;;5065385;28;20036;-72
2021/03/21 05:20:45;;;;;;;10.05;1.80;;;5.40;99.90;;;;;;5064835;28;20052;-75
2021/03/21 05:23:29;;;;;;;4.13;1.17;;;5.30;99.90;;;;;;5061606;28;20033;-74
2021/03/21 05:26:12;;;;;;;7.72;0.75;;;5.30;99.90;;;;;;5064838;28;20040;-76
2021/03/21 05:29:05;;;;;;;5.70;1.73;;;5.30;99.90;;;;;;5065052;28;20028;-75
2021/03/21 05:31:31;;;;;;;4.80;1.95;;;5.30;99.90;;;;;;5080438;28;20037;-74
2021/03/21 05:33:57;;;;;;;13.50;2.58;;;5.20;99.90;;;;;;5064675;28;20025;-75
2021/03/21 05:36:43;;;;;;;10.30;2.13;;;5.20;99.90;;;;;;5064294;28;20032;-73
2021/03/21 05:39:29;;;;;;;11.30;1.90;;;5.10;99.90;;;;;;5065011;28;20039;-75
2021/03/21 05:42:32;;;;;;;11.52;2.08;;;5.20;99.90;;;;;;5064850;28;20025;-73
2021/03/21 05:45:03;;;;;;;8.10;1.75;;;5.20;99.90;;;;;;5064854;28;20033;-72
2021/03/21 05:47:29;;;;;;;4.53;1.95;;;5.20;99.90;;;;;;5064770;28;20089;-78
2021/03/21 05:50:36;;;;;;;18.38;1.88;;;5.20;99.90;;;;;;5079913;28;20074;-75
2021/03/21 05:53:26;;;;;;;17.50;2.42;;;5.20;99.90;;;;;;5058590;28;20207;-76
2021/03/21 05:56:11;;;;;;;3.72;2.15;;;5.20;99.90;;;;;;5079012;28;20184;-75
2021/03/21 05:58:57;;;;;;;4.03;1.42;;;5.20;99.90;;;;;;5064477;28;20076;-74
2021/03/21 06:01:37;;;;;;;10.93;2.10;;;5.20;99.90;;;;;;5064346;28;20033;-75
2021/03/21 06:04:34;;;;;;;14.00;1.90;;;5.20;99.90;;;;;;5080022;28;20075;-74
2021/03/21 06:07:22;;;;;;;8.00;1.75;;;5.20;99.90;;;;;;5064405;28;20021;-76
2021/03/21 06:10:06;;;;;;;4.22;1.02;;;5.20;99.90;;;;;;5064567;28;20065;-75
2021/03/21 06:12:49;;;;;;;21.33;2.95;;;5.30;99.90;;;;;;5064448;28;20386;-75
2021/03/21 06:15:27;;;;;;;18.98;2.95;;;5.30;99.90;;;;;;5064636;28;20025;-74
2021/03/21 06:18:10;;;;;;;3.38;1.70;;;5.30;99.90;;;;;;5079228;28;20029;-75
2021/03/21 06:20:48;;;;;;;34.00;2.33;;;5.30;99.90;;;;;;5064064;28;20059;-75
2021/03/21 06:23:47;;;;;;;15.35;2.20;;;5.30;99.90;;;;;;5064576;28;20033;-74
2021/03/21 06:26:28;;;;;;;5.90;2.30;;;5.30;99.90;;;;;;5064677;28;20035;-76
2021/03/21 06:29:31;;;;;;;13.00;2.88;;;5.30;99.90;;;;;;5064284;28;20115;-72
2021/03/21 06:32:22;;;;;;;18.20;2.97;;;5.40;99.90;;;;;;5064230;28;20052;-73
2021/03/21 06:35:43;;;;;;;8.98;2.30;;;5.30;99.90;;;;;;5064238;28;20029;-77
2021/03/21 06:38:27;;;;;;;9.38;1.83;;;5.30;99.90;;;;;;5064240;28;20029;-75
2021/03/21 06:41:16;;;;;;;28.35;2.65;;;5.30;99.90;;;;;;5064084;28;20033;-78
2021/03/21 06:44:09;;;;;;;14.20;3.03;;;5.30;99.90;;;;;;5042427;28;20052;-76
2021/03/21 06:46:55;;;;;;;12.38;1.73;;;5.30;99.90;;;;;;5064030;28;20033;-78
2021/03/21 06:49:52;;;;;;;18.77;2.42;;;5.30;99.90;;;;;;5064047;28;20041;-76
2021/03/21 06:52:30;;;;;;;10.60;2.83;;;5.40;99.90;;;;;;5064375;28;20059;-79
2021/03/21 06:55:19;;;;;;;15.18;2.50;;;5.40;99.90;;;;;;5063964;28;20036;-79
2021/03/21 06:58:10;;;;;;;7.78;2.47;;;5.40;99.90;;;;;;5062381;28;20135;-79
2021/03/21 07:00:54;;;;;;;16.80;2.58;;;5.40;99.90;;;;;;5079293;28;20037;-80
2021/03/21 07:04:08;;;;;;;8.45;2.28;;;5.40;99.90;;;;;;5064050;28;20032;-77
2021/03/21 07:06:54;;;;;;;15.13;3.30;;;5.40;99.90;;;;;;5063948;28;20041;-79
2021/03/21 07:09:57;;;;;;;9.07;2.05;;;5.40;99.90;;;;;;5066249;28;20033;-73
2021/03/21 07:12:57;;;;;;;25.25;2.33;;;5.40;99.90;;;;;;5082708;28;20037;-75
2021/03/21 07:15:34;;;;;;;22.38;3.50;;;5.40;99.90;;;;;;5067508;28;20029;-77
2021/03/21 07:18:00;;;;;;;13.63;2.25;;;5.50;99.90;;;;;;5082820;28;20382;-79
2021/03/21 07:20:47;;;;;;;10.20;1.45;;;5.50;99.90;;;;;;5067057;28;20060;-75
2021/03/21 07:23:21;;;;;;;15.90;2.47;;;5.50;99.90;;;;;;5082795;28;20052;-78
2021/03/21 07:26:08;;;;;;;8.52;2.78;;;5.50;99.90;;;;;;5082795;28;20332;-77
2021/03/21 07:29:03;;;;;;;10.50;3.75;;;5.50;99.90;;;;;;5077312;28;20443;-74
2021/03/21 07:31:34;;;;;;;14.48;4.20;;;5.60;99.90;;;;;;5074917;28;20078;-76
2021/03/21 07:34:24;;;;;;;19.70;3.95;;;5.70;99.90;;;;;;5065595;28;20079;-75
2021/03/21 07:37:29;;;;;;;13.93;2.58;;;5.70;99.90;;;;;;5067068;28;20112;-75
2021/03/21 07:40:19;;;;;;;23.02;3.20;;;5.80;99.90;;;;;;5086462;28;20020;-75
2021/03/21 07:43:01;;;;;;;26.00;3.00;;;5.80;99.90;;;;;;5085614;28;20035;-76
2021/03/21 07:45:51;;;;;;;21.58;3.50;;;5.80;99.90;;;;;;5086870;28;20028;-73
2021/03/21 07:48:40;;;;;;;14.30;2.92;;;5.90;99.90;;;;;;5086830;28;20040;-73
2021/03/21 07:51:23;;;;;;;23.52;3.13;;;5.90;99.90;;;;;;5086656;28;20033;-74
2021/03/21 07:54:28;;;;;;;8.75;2.22;;;6.00;99.90;;;;;;5086757;28;20028;-74
2021/03/21 07:57:36;;;;;;;10.38;3.67;;;6.00;99.90;;;;;;5086342;28;20020;-74
2021/03/21 08:00:05;;;;;;;14.55;3.47;;;6.10;99.90;;;;;;5071716;28;20032;-72
2021/03/21 08:02:31;;;;;;;10.77;2.03;;;6.10;99.90;;;;;;5085346;28;20029;-74
2021/03/21 08:05:25;;;;;;;12.65;3.25;;;6.10;99.90;;;;;;5085068;28;20029;-72
2021/03/21 08:07:54;;;;;;;5.63;2.17;;;6.20;99.90;;;;;;5084907;28;20072;-75
2021/03/21 08:10:37;;;;;;;13.18;2.95;;;6.20;99.90;;;;;;5085136;28;20037;-75
2021/03/21 08:13:41;;;;;;;8.05;3.30;;;6.20;99.90;;;;;;5083390;28;20041;-76
2021/03/21 08:16:16;;;;;;;11.52;3.50;;;6.20;99.90;;;;;;5059302;28;20060;-75
2021/03/21 08:18:45;;;;;;;19.75;2.92;;;6.20;99.90;;;;;;5084886;28;20025;-75
2021/03/21 08:21:20;;;;;;;18.08;3.15;;;6.20;99.90;;;;;;5081207;28;20119;-74
2021/03/21 08:23:52;;;;;;;15.38;2.92;;;6.30;99.90;;;;;;5065941;28;20075;-74
2021/03/21 08:26:26;;;;;;;16.38;2.90;;;6.30;99.90;;;;;;5066090;28;20047;-72
2021/03/21 08:29:06;;;;;;;16.48;3.20;;;6.40;99.90;;;;;;5073823;28;20115;-74
2021/03/21 08:31:34;;;;;;;20.63;3.50;;;6.40;99.90;;;;;;5086000;28;20024;-74
2021/03/21 08:34:39;;;;;;;18.92;3.25;;;6.40;99.90;;;;;;5084485;28;20024;-74
2021/03/21 08:37:28;;;;;;;9.55;2.25;;;6.50;99.90;;;;;;5081222;28;20024;-75
2021/03/21 08:40:19;;;;;;;27.58;4.03;;;6.60;99.90;;;;;;5065833;28;20090;-74
2021/03/21 08:42:47;;;;;;;11.32;2.63;;;6.70;99.90;;;;;;5065627;28;20040;-75
2021/03/21 08:45:13;;;;;;;26.98;3.47;;;6.80;99.90;;;;;;5065433;28;20029;-75
2021/03/21 08:47:40;;;;;;;13.13;3.05;;;7.00;99.90;;;;;;5065425;28;20049;-75
2021/03/21 08:50:25;;;;;;;9.55;2.67;;;7.00;99.90;;;;;;5074914;28;20044;-75
2021/03/21 08:52:51;;;;;;;21.70;4.20;;;7.10;99.90;;;;;;5065738;28;20036;-73
2021/03/21 08:55:29;;;;;;;16.15;2.40;;;7.20;99.90;;;;;;5067883;28;20061;-74
2021/03/21 08:57:55;;;;;;;21.67;3.95;;;7.20;99.90;;;;;;5085401;28;20035;-75
2021/03/21 09:00:26;;;;;;;20.05;2.88;;;7.10;99.90;;;;;;5085469;28;20028;-76
2021/03/21 09:02:53;;;;;;;17.23;3.97;;;7.10;99.90;;;;;;5084114;28;20124;-76
2021/03/21 09:05:21;;;;;;;15.55;3.97;;;7.10;99.90;;;;;;5085483;28;20032;-74
2021/03/21 09:07:50;;;;;;;13.57;3.70;;;7.10;99.90;;;;;;5084056;28;20032;-77
2021/03/21 09:10:32;;;;;;;8.52;2.72;;;7.10;99.90;;;;;;5084463;28;20397;-75
2021/03/21 09:13:06;;;;;;;21.48;2.78;;;7.00;99.90;;;;;;5065922;28;20115;-74
2021/03/21 09:15:37;;;;;;;15.88;2.72;;;7.00;99.90;;;;;;5063411;28;20033;-74
2021/03/21 09:18:19;;;;;;;14.82;3.53;;;7.00;99.90;;;;;;5064189;28;20025;-76
2021/03/21 09:20:52;;;;;;;11.38;2.42;;;7.10;99.90;;;;;;5062375;28;20048;-76
2021/03/21 09:23:27;;;;;;;20.70;2.60;;;7.30;99.90;;;;;;5063614;28;20032;-75
2021/03/21 09:25:55;;;;;;;12.13;3.45;;;7.30;99.90;;;;;;5071586;28;20374;-75
2021/03/21 09:28:32;;;;;;;16.27;2.90;;;7.50;99.90;;;;;;5072213;28;20044;-76
2021/03/21 09:31:03;;;;;;;12.18;3.45;;;7.50;99.90;;;;;;5062255;28;20059;-76
2021/03/21 09:33:35;;;;;;;19.60;3.95;;;7.60;99.90;;;;;;5063472;28;20017;-74
2021/03/21 09:36:09;;;;;;;17.75;3.00;;;7.80;99.90;;;;;;5079202;28;20052;-76
2021/03/21 09:38:45;;;;;;;11.45;2.80;;;7.80;99.90;;;;;;5078371;28;20024;-74
2021/03/21 09:41:13;;;;;;;9.25;2.78;;;7.90;99.90;;;;;;5066466;28;20021;-75
2021/03/21 09:43:41;;;;;;;16.23;2.80;;;8.00;99.90;;;;;;5078275;28;20025;-74
2021/03/21 09:46:06;;;;;;;30.42;3.25;;;8.20;99.90;;;;;;5075291;28;20036;-74
2021/03/21 09:48:43;;;;;;;14.63;2.97;;;8.30;99.90;;;;;;5062333;28;20054;-74
2021/03/21 09:51:24;;;;;;;17.90;3.53;;;8.40;99.90;;;;;;5070438;28;20119;-76
2021/03/21 09:54:22;;;;;;;21.50;2.75;;;8.40;99.90;;;;;;5068310;28;20023;-76
2021/03/21 09:57:18;;;;;;;17.77;3.80;;;8.40;99.90;;;;;;5059171;28;20087;-77
2021/03/21 09:59:55;;;;;;;9.45;3.05;;;8.50;99.90;;;;;;5082910;28;20036;-75
2021/03/21 10:02:35;;;;;;;13.52;2.83;;;8.50;99.90;;;;;;5078831;28;20037;-79
2021/03/21 10:05:07;;;;;;;12.05;2.92;;;8.50;99.90;;;;;;5070431;28;20036;-76
2021/03/21 10:08:05;;;;;;;19.35;2.85;;;8.70;99.90;;;;;;5081925;28;20070;-77
2021/03/21 10:11:04;;;;;;;16.48;3.20;;;8.90;99.90;;;;;;5053706;28;20041;-76
2021/03/21 10:13:40;;;;;;;17.23;2.95;;;9.20;99.90;;;;;;5061863;28;20121;-76
2021/03/21 10:16:34;;;;;;;23.23;3.50;;;9.30;99.90;;;;;;5076097;28;20032;-75
2021/03/21 10:19:02;;;;;;;13.37;2.93;;;9.40;99.90;;;;;;5016157;28;1540547;-78
2021/03/21 10:21:31;;;;;;;8.98;3.42;;;9.30;99.90;;;;;;5063440;28;20087;-75
2021/03/21 10:24:16;;;;;;;9.15;2.80;;;9.40;99.90;;;;;;5077404;28;20163;-76
2021/03/21 10:27:18;;;;;;;20.27;2.85;;;9.50;99.90;;;;;;5064325;28;20072;-78
2021/03/21 10:30:01;;;;;;;20.30;3.78;;;9.70;99.90;;;;;;5062090;28;20087;-77
2021/03/21 10:32:29;;;;;;;22.42;3.47;;;9.70;99.90;;;;;;5066479;28;20124;-75
2021/03/21 10:34:56;;;;;;;12.65;2.17;;;9.80;99.90;;;;;;5075654;28;20120;-74
2021/03/21 10:37:40;;;;;;;11.65;2.75;;;10.10;99.90;;;;;;5075594;28;20025;-77
2021/03/21 10:40:22;;;;;;;13.57;3.92;;;10.10;99.90;;;;;;5071178;28;20486;-76
2021/03/21 10:43:01;;;;;;;11.55;1.92;;;9.90;99.90;;;;;;5070796;28;20357;-76
2021/03/21 10:45:35;;;;;;;12.43;2.58;;;9.90;99.90;;;;;;5072116;28;20033;-75
2021/03/21 10:48:15;;;;;;;20.42;3.53;;;9.80;99.90;;;;;;5081102;28;20033;-75
2021/03/21 10:50:52;;;;;;;7.22;2.83;;;9.80;99.90;;;;;;5081158;28;20095;-76
2021/03/21 10:53:33;;;;;;;9.45;3.40;;;9.70;99.90;;;;;;5070139;28;20025;-77
2021/03/21 10:56:20;;;;;;;8.48;2.63;;;9.70;99.90;;;;;;5085859;28;20028;-74
2021/03/21 10:58:46;;;;;;;15.27;3.22;;;9.60;99.90;;;;;;5084297;28;20019;-76
2021/03/21 11:01:19;;;;;;;9.63;2.55;;;9.70;99.90;;;;;;5079642;28;20421;-78
2021/03/21 11:03:48;;;;;;;22.50;3.40;;;9.60;99.90;;;;;;5081875;28;20485;-76
2021/03/21 11:06:20;;;;;;;9.40;1.90;;;9.60;99.90;;;;;;5073901;28;20477;-77
2021/03/21 11:08:48;;;;;;;15.50;2.70;;;9.80;99.90;;;;;;5085408;28;20080;-76
2021/03/21 11:11:18;;;;;;;6.90;2.25;;;9.80;99.90;;;;;;5066607;28;20102;-77
2021/03/21 11:13:46;;;;;;;15.63;3.10;;;9.70;99.90;;;;;;5072290;28;20037;-78
2021/03/21 11:16:16;;;;;;;15.48;3.25;;;9.60;99.90;;;;;;5087304;28;20078;-77
2021/03/21 11:18:51;;;;;;;21.83;3.17;;;9.70;99.90;;;;;;5086530;28;20025;-77
2021/03/21 11:21:18;;;;;;;13.00;2.50;;;9.90;99.90;;;;;;5087104;28;20039;-78
2021/03/21 11:23:59;;;;;;;15.48;2.85;;;10.10;99.90;;;;;;5087247;28;20020;-76
2021/03/21 11:26:25;;;;;;;13.43;2.95;;;10.00;99.90;;;;;;5081414;28;20027;-76
2021/03/21 11:29:09;;;;;;;8.73;2.53;;;9.90;99.90;;;;;;5082109;28;20045;-79
2021/03/21 11:31:48;;;;;;;21.33;2.85;;;9.90;99.90;;;;;;5066563;28;20021;-75
2021/03/21 11:34:21;;;;;;;11.30;2.88;;;9.80;99.90;;;;;;5066934;28;20036;-78
2021/03/21 11:37:00;;;;;;;8.30;2.25;;;9.50;99.90;;;;;;5067172;28;20047;-78
2021/03/21 11:40:02;;;;;;;10.50;2.58;;;9.50;99.90;;;;;;5064077;28;20112;-77
2021/03/21 11:42:41;;;;;;;18.15;2.90;;;9.40;99.90;;;;;;5061860;28;20041;-75
2021/03/21 11:45:27;;;;;;;10.75;2.63;;;9.20;99.90;;;;;;5064419;28;20083;-75
2021/03/21 11:48:12;;;;;;;15.52;2.83;;;9.10;99.90;;;;;;5074341;28;20036;-77
2021/03/21 11:50:41;;;;;;;12.27;3.20;;;9.20;99.90;;;;;;5065519;28;20048;-76
2021/03/21 11:53:17;;;;;;;11.32;1.90;;;9.30;99.90;;;;;;5065866;28;20040;-78
2021/03/21 11:55:47;;;;;;;7.75;1.90;;;9.30;99.90;;;;;;5082630;28;20033;-76
2021/03/21 11:58:31;;;;;;;10.73;3.05;;;9.20;99.90;;;;;;5084434;28;20074;-74
2021/03/21 12:01:04;;;;;;;7.80;2.53;;;9.30;99.90;;;;;;5085479;28;20028;-74
2021/03/21 12:03:47;;;;;;;12.02;2.78;;;9.30;99.90;;;;;;5085399;28;20035;-76
2021/03/21 12:06:32;;;;;;;5.60;2.13;;;9.40;99.90;;;;;;5085766;28;20105;-76
2021/03/21 12:09:09;;;;;;;14.68;1.95;;;9.10;99.90;;;;;;5077979;28;20036;-74
2021/03/21 12:11:39;;;;;;;24.05;2.55;;;9.10;99.90;;;;;;5080260;28;20485;-74
2021/03/21 12:14:24;;;;;;;19.08;3.03;;;9.20;99.90;;;;;;5065006;28;20021;-76
2021/03/21 12:16:52;;;;;;;14.15;1.88;;;9.10;99.90;;;;;;5080487;28;20408;-78
2021/03/21 12:19:29;;;;;;;4.80;1.70;;;9.10;99.90;;;;;;5064827;28;20097;-76
2021/03/21 12:21:58;;;;;;;12.32;3.00;;;9.10;99.90;;;;;;5064995;28;20035;-75
2021/03/21 12:24:25;;;;;;;9.18;3.33;;;9.20;99.90;;;;;;5080069;28;20428;-75
2021/03/21 12:26:57;;;;;;;12.20;1.65;;;9.20;99.90;;;;;;5064970;28;20143;-75
2021/03/21 12:29:23;;;;;;;9.98;2.13;;;9.30;99.90;;;;;;5064031;28;20037;-72
2021/03/21 12:31:51;;;;;;;9.32;2.10;;;9.40;99.90;;;;;;5065011;28;20036;-73
2021/03/21 12:34:50;;;;;;;11.57;1.65;;;9.50;99.90;;;;;;5067141;28;20041;-73
2021/03/21 12:37:51;;;;;;;8.23;2.83;;;9.70;99.90;;;;;;5065045;28;20037;-75
2021/03/21 12:40:28;;;;;;;13.88;2.28;;;9.60;99.90;;;;;;5065330;28;20032;-75
2021/03/21 12:42:54;;;;;;;7.13;2.63;;;9.50;99.90;;;;;;5064570;28;20025;-76
2021/03/21 12:45:28;;;;;;;8.57;1.77;;;9.30;99.90;;;;;;5063054;28;20063;-75
2021/03/21 12:47:54;;;;;;;10.48;2.72;;;9.20;99.90;;;;;;5064166;28;20075;-74
2021/03/21 12:50:37;;;;;;;8.05;2.33;;;9.00;99.90;;;;;;5062808;28;20029;-73
2021/03/21 12:53:08;;;;;;;12.20;2.78;;;9.00;99.90;;;;;;5064499;28;20056;-72
2021/03/21 12:55:34;;;;;;;6.35;1.55;;;8.90;99.90;;;;;;5064070;28;20025;-73
2021/03/21 12:58:01;;;;;;;19.10;3.83;;;8.80;99.90;;;;;;5064117;28;20104;-74
2021/03/21 13:00:33;;;;;;;17.15;2.92;;;9.00;99.90;;;;;;5064195;28;20029;-74
2021/03/21 13:03:01;;;;;;;22.13;2.45;;;9.10;99.90;;;;;;5062758;28;20029;-74
2021/03/21 13:05:36;;;;;;;13.50;3.17;;;9.10;99.90;;;;;;5063691;28;20035;-73
2021/03/21 13:08:04;;;;;;;13.25;2.80;;;9.30;99.90;;;;;;5064150;28;20037;-75
2021/03/21 13:10:33;;;;;;;5.60;2.30;;;9.40;99.90;;;;;;5063600;28;20029;-73
2021/03/21 13:13:05;;;;;;;9.82;2.42;;;9.30;99.90;;;;;;5062415;28;20428;-75
2021/03/21 13:15:30;;;;;;;5.45;2.20;;;9.20;99.90;;;;;;5066159;28;20056;-77
2021/03/21 13:17:56;;;;;;;10.13;2.95;;;9.30;99.90;;;;;;5067742;28;20057;-74
2021/03/21 13:20:22;;;;;;;15.63;2.25;;;9.60;99.90;;;;;;5063504;28;20064;-78
2021/03/21 13:22:50;;;;;;;3.95;1.58;;;9.80;99.90;;;;;;5063821;28;20077;-77
2021/03/21 13:25:35;;;;;;;14.02;3.28;;;9.90;99.90;;;;;;5069840;28;20053;-76
2021/03/21 13:28:05;;;;;;;4.35;1.65;;;10.40;99.90;;;;;;5075949;28;20052;-77
2021/03/21 13:30:37;;;;;;;10.55;2.15;;;10.60;99.90;;;;;;5065966;28;20028;-74
2021/03/21 13:33:04;;;;;;;14.45;2.03;;;10.70;99.90;;;;;;5082907;28;20037;-74
2021/03/21 13:35:31;;;;;;;13.43;1.95;;;10.90;99.90;;;;;;5081629;28;20052;-75
2021/03/21 13:37:58;;;;;;;7.63;2.08;;;10.80;99.90;;;;;;5082848;28;20029;-78
2021/03/21 13:40:28;;;;;;;18.33;2.30;;;10.50;99.90;;;;;;5079593;28;20036;-79
2021/03/21 13:42:54;;;;;;;6.60;1.85;;;10.40;99.90;;;;;;5067779;28;20056;-75
2021/03/21 13:45:21;;;;;;;8.13;1.92;;;10.40;99.90;;;;;;5070241;28;20017;-75